Time;durP1;ratioP1;P1;durP2;ratioP2;P2;SDS_P1;SDS_P2;PMS_P1;PMS_P2;Temp;Humidity;BMP_temperature;BMP_pressure;BME280_temperature;BME280_humidity;BME280_pressure;Samples;Min_cycle;Max_cycle;Signal;HPM_P1;HPM_P2
2022/07/25 00:01:37;;;;;;;11.75;9.60;;;;;;;25.96;41.02;96243.75;5113318;28;20069;-69
2022/07/25 00:04:07;;;;;;;18.05;10.13;;;;;;;25.95;40.65;96250.13;5113586;28;20124;-69
2022/07/25 00:06:35;;;;;;;12.38;9.65;;;;;;;25.93;40.87;96249.44;5113575;28;20058;-69
2022/07/25 00:09:03;;;;;;;11.32;9.90;;;;;;;25.92;40.28;96245.06;5113410;28;20496;-69
2022/07/25 00:11:30;;;;;;;11.15;9.50;;;;;;;25.90;40.45;96231.84;5113500;28;20057;-69
2022/07/25 00:13:57;;;;;;;10.55;9.13;;;;;;;25.83;40.74;96230.81;5113444;28;20104;-69
2022/07/25 00:16:24;;;;;;;10.23;9.13;;;;;;;25.85;40.52;96242.19;5113507;28;20082;-69
2022/07/25 00:18:51;;;;;;;10.35;8.93;;;;;;;25.86;40.41;96241.22;5113395;28;20544;-69
2022/07/25 00:21:18;;;;;;;14.77;8.98;;;;;;;25.86;40.18;96246.56;5113592;28;20047;-69
2022/07/25 00:23:47;;;;;;;15.85;9.57;;;;;;;25.81;40.52;96248.88;5113338;28;20134;-69
2022/07/25 00:26:15;;;;;;;11.85;9.60;;;;;;;25.84;40.65;96248.56;5113272;28;20516;-69
2022/07/25 00:28:43;;;;;;;12.57;9.55;;;;;;;25.82;40.67;96247.88;5113406;28;20054;-69
2022/07/25 00:31:10;;;;;;;15.00;9.00;;;;;;;25.81;40.77;96248.88;5113347;28;20108;-69
2022/07/25 00:33:38;;;;;;;12.70;9.43;;;;;;;25.70;40.98;96245.50;5113338;28;20048;-69
2022/07/25 00:36:07;;;;;;;13.57;8.82;;;;;;;25.65;41.20;96252.34;5113353;28;20082;-69
2022/07/25 00:38:34;;;;;;;10.38;8.82;;;;;;;25.65;41.24;96252.34;5113270;28;20534;-69
2022/07/25 00:41:03;;;;;;;11.85;9.57;;;;;;;25.60;41.01;96252.81;5113208;28;20101;-69
2022/07/25 00:43:30;;;;;;;13.52;8.70;;;;;;;25.63;41.33;96262.38;5113004;28;20527;-69
2022/07/25 00:45:58;;;;;;;12.77;9.45;;;;;;;25.65;41.67;96263.06;5113138;28;20043;-69
2022/07/25 00:48:25;;;;;;;11.50;8.90;;;;;;;25.58;41.71;96263.66;5113149;28;20127;-69
2022/07/25 00:50:52;;;;;;;11.35;8.88;;;;;;;25.62;42.12;96269.56;5113867;28;20047;-69
2022/07/25 00:53:19;;;;;;;13.90;9.60;;;;;;;25.59;42.52;96264.50;5117187;28;20486;-69
2022/07/25 00:55:46;;;;;;;16.42;9.50;;;;;;;25.53;42.24;96266.00;5117078;28;20048;-69
2022/07/25 00:58:17;;;;;;;17.30;8.73;;;;;;;25.59;42.72;96272.53;5116955;28;20047;-69
2022/07/25 01:00:44;;;;;;;;;;;;;;;25.58;42.90;96278.88;5117451;28;20052;-69
2022/07/25 01:03:11;;;;;;;10.60;9.07;;;;;;;25.44;42.99;96280.31;5116504;28;19923;-69
2022/07/25 01:05:38;;;;;;;12.50;9.20;;;;;;;25.43;42.95;96289.34;5116884;28;20078;-69
2022/07/25 01:08:06;;;;;;;12.60;9.82;;;;;;;25.35;43.67;96293.63;5116772;28;20052;-69
2022/07/25 01:10:34;;;;;;;10.70;9.57;;;;;;;25.36;43.39;96289.13;5116743;28;20075;-69
2022/07/25 01:13:01;;;;;;;13.23;9.48;;;;;;;25.26;43.88;96297.28;5116779;28;20504;-69
2022/07/25 01:15:30;;;;;;;12.55;9.80;;;;;;;25.26;44.15;96299.09;5116855;28;20093;-69
2022/07/25 01:17:58;;;;;;;16.85;9.40;;;;;;;25.13;44.36;96299.53;5116607;28;20052;-69
2022/07/25 01:20:28;;;;;;;14.98;10.15;;;;;;;25.14;44.47;96307.41;5116640;28;20043;-69
2022/07/25 01:22:56;;;;;;;14.30;9.55;;;;;;;25.12;44.82;96306.69;5116391;28;20055;-69
2022/07/25 01:25:24;;;;;;;10.90;9.85;;;;;;;25.11;45.02;96299.69;5116585;28;20073;-68
2022/07/25 01:27:52;;;;;;;15.48;10.48;;;;;;;25.10;44.75;96308.69;5116300;28;20048;-69
2022/07/25 01:30:21;;;;;;;11.48;10.40;;;;;;;25.08;44.92;96306.16;5116198;28;20043;-69
2022/07/25 01:32:48;;;;;;;11.32;9.95;;;;;;;25.14;44.68;96312.75;5116235;28;20043;-69
2022/07/25 01:35:15;;;;;;;14.35;10.52;;;;;;;25.13;44.74;96308.38;5116208;28;20405;-69
2022/07/25 01:37:44;;;;;;;13.00;10.55;;;;;;;25.21;45.03;96305.78;5116221;28;20047;-69
2022/07/25 01:40:11;;;;;;;11.82;10.30;;;;;;;25.26;45.02;96309.81;5116023;28;20501;-69
2022/07/25 01:42:39;;;;;;;13.50;10.15;;;;;;;25.26;44.92;96310.66;5116082;28;20051;-69
2022/07/25 01:45:07;;;;;;;10.73;9.63;;;;;;;25.29;44.87;96314.84;5115982;28;20075;-68
2022/07/25 01:47:35;;;;;;;10.02;9.02;;;;;;;25.18;45.55;96332.00;5115869;28;20050;-69
2022/07/25 01:50:02;;;;;;;11.63;10.07;;;;;;;25.20;45.46;96335.38;5115929;28;20048;-69
2022/07/25 01:52:29;;;;;;;10.55;9.55;;;;;;;25.23;45.58;96343.91;5115821;28;20544;-69
2022/07/25 01:54:58;;;;;;;11.88;9.50;;;;;;;25.29;45.43;96339.78;5115907;28;20459;-69
2022/07/25 01:57:25;;;;;;;10.27;9.27;;;;;;;25.31;45.43;96335.09;5115888;28;20044;-69
2022/07/25 01:59:52;;;;;;;10.88;9.82;;;;;;;25.30;45.33;96336.09;5115751;28;20126;-69
2022/07/25 02:02:19;;;;;;;13.75;9.45;;;;;;;25.28;45.67;96334.59;5114952;28;20484;-69
2022/07/25 02:04:46;;;;;;;12.00;10.10;;;;;;;25.27;45.70;96340.91;5115574;28;20051;-69
2022/07/25 02:07:14;;;;;;;12.10;10.23;;;;;;;25.21;45.79;96331.69;5115503;28;20052;-69
2022/07/25 02:09:41;;;;;;;11.95;10.30;;;;;;;25.21;45.72;96321.81;5115570;28;20094;-69
2022/07/25 02:12:10;;;;;;;12.18;9.65;;;;;;;25.21;45.65;96332.53;5115474;28;20083;-69
2022/07/25 02:14:37;;;;;;;11.40;10.23;;;;;;;25.15;45.93;96338.50;5115464;28;20054;-69
2022/07/25 02:17:04;;;;;;;14.68;10.65;;;;;;;25.18;45.79;96338.19;5115385;28;20130;-69
2022/07/25 02:19:31;;;;;;;13.65;10.10;;;;;;;25.20;45.80;96332.69;5115403;28;20378;-69
2022/07/25 02:21:58;;;;;;;10.57;9.48;;;;;;;25.17;46.08;96327.63;5115435;28;20405;-68
2022/07/25 02:24:25;;;;;;;12.13;10.93;;;;;;;25.12;46.43;96320.06;5115234;28;20051;-69
2022/07/25 02:26:52;;;;;;;13.20;10.00;;;;;;;25.10;46.15;96322.91;5115276;28;20079;-69
2022/07/25 02:29:21;;;;;;;11.70;10.45;;;;;;;25.08;46.02;96314.19;5115285;28;20068;-69
2022/07/25 02:31:48;;;;;;;13.07;10.38;;;;;;;24.97;46.52;96309.94;5115249;28;20550;-69
2022/07/25 02:34:15;;;;;;;13.98;11.20;;;;;;;24.93;46.64;96303.22;5115044;28;20062;-69
2022/07/25 02:36:42;;;;;;;11.48;10.30;;;;;;;24.82;46.19;96314.13;5115053;28;20493;-69
2022/07/25 02:39:10;;;;;;;12.00;10.90;;;;;;;24.84;46.89;96309.47;5115083;28;20500;-69
2022/07/25 02:41:37;;;;;;;11.63;10.60;;;;;;;24.81;46.88;96309.78;5114817;28;20061;-69
2022/07/25 02:44:05;;;;;;;12.88;10.38;;;;;;;24.84;47.78;96315.63;5114664;28;20086;-69
2022/07/25 02:46:33;;;;;;;12.13;9.93;;;;;;;24.79;47.83;96320.63;5114781;28;20403;-69
2022/07/25 02:49:01;;;;;;;13.60;10.45;;;;;;;24.73;47.86;96327.44;5114893;28;20101;-69
2022/07/25 02:51:28;;;;;;;13.02;10.90;;;;;;;24.74;47.61;96328.25;5114690;28;20051;-69
2022/07/25 02:53:56;;;;;;;11.52;10.38;;;;;;;24.68;47.84;96329.69;5114661;28;20484;-69
2022/07/25 02:56:23;;;;;;;12.15;10.93;;;;;;;24.66;48.52;96325.50;5115056;28;20131;-69
2022/07/25 02:58:50;;;;;;;12.77;11.00;;;;;;;24.58;48.45;96323.59;5114770;28;20047;-69
2022/07/25 03:01:17;;;;;;;12.15;11.05;;;;;;;24.49;48.69;96322.66;5114522;28;20051;-69
2022/07/25 03:03:46;;;;;;;13.85;12.45;;;;;;;24.42;48.53;96316.25;5073758;28;20044;-68
2022/07/25 03:06:13;;;;;;;14.82;11.13;;;;;;;24.33;48.79;96321.53;5073908;28;20044;-69
2022/07/25 03:08:40;;;;;;;12.43;11.15;;;;;;;24.28;49.58;96322.94;5073905;28;20493;-69
2022/07/25 03:11:08;;;;;;;16.92;11.23;;;;;;;24.21;49.97;96320.91;5073830;28;20048;-69
2022/07/25 03:13:35;;;;;;;13.02;11.77;;;;;;;24.15;50.37;96318.81;5073147;28;20110;-69
2022/07/25 03:16:01;;;;;;;12.80;11.40;;;;;;;24.04;50.30;96311.81;5073820;28;20071;-69
2022/07/25 03:18:29;;;;;;;11.98;10.82;;;;;;;23.96;50.83;96307.19;5073599;28;20095;-69
2022/07/25 03:20:57;;;;;;;11.93;10.82;;;;;;;23.91;51.05;96309.50;5073614;28;20044;-69
2022/07/25 03:23:26;;;;;;;12.30;10.45;;;;;;;23.86;51.02;96311.75;5073622;28;20072;-69
2022/07/25 03:25:53;;;;;;;12.13;10.77;;;;;;;23.72;51.23;96313.09;5073476;28;20048;-69
2022/07/25 03:28:20;;;;;;;12.35;11.15;;;;;;;23.65;51.34;96304.81;5073442;28;20109;-69
2022/07/25 03:30:47;;;;;;;12.93;11.38;;;;;;;23.57;51.72;96304.72;5073362;28;20098;-69
2022/07/25 03:33:14;;;;;;;11.82;10.68;;;;;;;23.58;51.87;96301.91;5073532;28;20072;-69
2022/07/25 03:35:42;;;;;;;12.85;11.30;;;;;;;23.47;51.77;96302.91;5073226;28;20052;-69
2022/07/25 03:38:10;;;;;;;15.02;11.57;;;;;;;23.49;52.97;96294.75;5073267;28;20052;-69
2022/07/25 03:40:38;;;;;;;13.23;11.85;;;;;;;23.48;52.51;96299.25;5073364;28;20079;-68
2022/07/25 03:43:05;;;;;;;13.27;11.77;;;;;;;23.41;52.39;96292.81;5073393;28;20044;-69
2022/07/25 03:45:32;;;;;;;12.23;11.00;;;;;;;23.46;52.68;96290.56;5073217;28;20068;-69
2022/07/25 03:47:59;;;;;;;13.05;11.70;;;;;;;23.43;52.02;96290.84;5073176;28;20094;-69
2022/07/25 03:50:26;;;;;;;12.60;10.82;;;;;;;23.55;51.49;96291.53;5073337;28;20475;-69
2022/07/25 03:52:53;;;;;;;12.70;11.35;;;;;;;23.64;51.15;96291.63;5073242;28;20094;-69
2022/07/25 03:55:22;;;;;;;14.77;11.88;;;;;;;23.80;50.49;96294.50;5073080;28;20044;-69
2022/07/25 03:57:49;;;;;;;12.60;11.30;;;;;;;23.97;49.90;96300.03;5072967;28;20047;-69
2022/07/25 04:00:16;;;;;;;12.18;10.93;;;;;;;24.25;49.69;96296.53;5073098;28;20444;-69
2022/07/25 04:02:44;;;;;;;19.63;11.65;;;;;;;24.54;49.22;96304.34;5096730;28;20052;-69
2022/07/25 04:05:11;;;;;;;14.20;10.40;;;;;;;24.82;50.78;96290.91;5113610;28;20054;-69
2022/07/25 04:07:38;;;;;;;12.15;11.05;;;;;;;25.06;51.89;96304.66;5113666;28;20071;-69
2022/07/25 04:10:07;;;;;;;11.13;10.02;;;;;;;25.21;51.53;96307.59;5113565;28;20078;-69
2022/07/25 04:12:36;;;;;;;12.38;11.07;;;;;;;25.34;51.35;96309.84;5113337;28;20134;-69
2022/07/25 04:15:03;;;;;;;11.57;10.55;;;;;;;25.52;50.86;96320.50;5113377;28;20466;-69
2022/07/25 04:17:30;;;;;;;11.55;10.38;;;;;;;25.72;51.50;96323.84;5113396;28;20052;-69
2022/07/25 04:19:58;;;;;;;14.07;10.80;;;;;;;25.82;51.07;96326.38;5113356;28;20485;-69
2022/07/25 04:22:25;;;;;;;12.23;10.60;;;;;;;25.90;49.88;96314.88;5113375;28;20127;-69
2022/07/25 04:24:52;;;;;;;13.23;11.35;;;;;;;25.95;50.49;96328.63;5114105;28;20052;-69
2022/07/25 04:27:19;;;;;;;11.93;10.68;;;;;;;25.99;52.20;96329.16;5117548;28;20051;-69
2022/07/25 04:29:48;;;;;;;12.73;11.05;;;;;;;26.01;51.91;96329.00;5117479;28;20044;-69
2022/07/25 04:32:15;;;;;;;14.98;11.02;;;;;;;26.15;51.94;96332.91;5117438;28;20117;-70
2022/07/25 04:34:43;;;;;;;12.23;10.95;;;;;;;26.35;50.53;96342.38;5117373;28;20051;-69
2022/07/25 04:37:10;;;;;;;16.15;10.77;;;;;;;26.62;47.94;96331.53;5117492;28;20386;-69
2022/07/25 04:39:37;;;;;;;15.00;10.90;;;;;;;26.99;48.68;96340.16;5117462;28;20485;-69
2022/07/25 04:42:05;;;;;;;11.73;10.57;;;;;;;27.29;46.83;96329.75;5117322;28;20051;-69
2022/07/25 04:44:32;;;;;;;10.85;9.45;;;;;;;27.52;44.18;96337.09;5117126;28;20143;-69
2022/07/25 04:47:01;;;;;;;10.55;9.55;;;;;;;27.81;45.84;96346.44;5117230;28;20413;-69
2022/07/25 04:49:29;;;;;;;10.85;9.85;;;;;;;28.16;46.73;96345.31;5117140;28;20054;-69
2022/07/25 04:51:56;;;;;;;10.43;9.50;;;;;;;28.53;44.68;96356.44;5117210;28;20047;-69
2022/07/25 04:54:23;;;;;;;10.88;9.27;;;;;;;28.80;44.12;96347.00;5116935;28;20073;-69
2022/07/25 04:56:50;;;;;;;10.32;9.43;;;;;;;29.12;43.93;96350.53;5116998;28;20094;-69
2022/07/25 04:59:17;;;;;;;12.30;9.05;;;;;;;29.38;42.52;96356.53;5116838;28;20059;-69
2022/07/25 05:01:45;;;;;;;10.65;9.05;;;;;;;29.64;43.24;96366.06;5116638;28;20043;-69
2022/07/25 05:04:14;;;;;;;10.98;9.05;;;;;;;29.82;42.54;96359.47;5116865;28;20051;-69
2022/07/25 05:06:41;;;;;;;9.48;7.95;;;;;;;30.05;39.47;96364.78;5116925;28;20086;-69
2022/07/25 05:09:08;;;;;;;9.20;8.38;;;;;;;30.32;40.72;96365.19;5116705;28;20453;-69
2022/07/25 05:11:35;;;;;;;9.85;8.85;;;;;;;30.53;38.59;96371.63;5116635;28;20043;-69
2022/07/25 05:14:02;;;;;;;8.90;8.00;;;;;;;30.59;38.17;96373.59;5116740;28;20052;-69
2022/07/25 05:16:29;;;;;;;13.35;8.73;;;;;;;30.63;38.78;96376.72;5116771;28;20451;-69
2022/07/25 05:18:57;;;;;;;9.40;8.40;;;;;;;30.76;39.46;96382.31;5116458;28;20044;-69
2022/07/25 05:21:26;;;;;;;9.35;8.45;;;;;;;30.79;38.57;96372.16;5116504;28;20492;-69
2022/07/25 05:23:54;;;;;;;9.60;8.60;;;;;;;30.84;38.24;96373.25;5116424;28;20489;-70
2022/07/25 05:26:21;;;;;;;9.63;8.55;;;;;;;31.23;38.13;96371.13;5116414;28;20048;-69
2022/07/25 05:28:48;;;;;;;12.75;9.15;;;;;;;31.56;36.36;96369.75;5116609;28;20044;-69
2022/07/25 05:31:15;;;;;;;9.52;8.63;;;;;;;31.70;35.28;96362.59;5116398;28;20454;-69
2022/07/25 05:33:42;;;;;;;11.65;9.75;;;;;;;31.78;35.52;96367.84;5116218;28;20050;-69
2022/07/25 05:36:09;;;;;;;10.65;9.55;;;;;;;31.69;36.60;96362.78;5115735;28;20054;-68
2022/07/25 05:38:38;;;;;;;10.30;9.30;;;;;;;31.58;37.08;96364.16;5115719;28;20090;-68
2022/07/25 05:41:06;;;;;;;10.77;9.77;;;;;;;31.23;36.90;96364.88;5116147;28;20119;-68
2022/07/25 05:43:33;;;;;;;13.88;8.57;;;;;;;30.85;37.51;96364.13;5115942;28;20461;-69
2022/07/25 05:46:01;;;;;;;12.65;7.97;;;;;;;30.60;36.82;96353.66;5115998;28;20051;-69
2022/07/25 05:48:29;;;;;;;9.80;7.60;;;;;;;30.36;38.96;96352.97;5115947;28;20101;-69
2022/07/25 05:50:58;;;;;;;9.85;7.03;;;;;;;30.19;37.96;96351.53;5115827;28;20507;-69
2022/07/25 05:53:25;;;;;;;11.25;6.55;;;;;;;29.89;38.79;96350.47;5115858;28;20071;-69
2022/07/25 05:55:54;;;;;;;9.43;6.90;;;;;;;29.77;40.04;96347.41;5115757;28;20132;-69
2022/07/25 05:58:22;;;;;;;10.63;6.88;;;;;;;29.47;38.13;96341.94;5115897;28;20059;-69
2022/07/25 06:00:49;;;;;;;8.50;7.18;;;;;;;29.35;38.27;96336.16;5115888;28;20123;-69
2022/07/25 06:03:17;;;;;;;10.75;7.18;;;;;;;29.22;38.65;96342.19;5115443;28;20046;-69
2022/07/25 06:05:44;;;;;;;10.45;7.53;;;;;;;29.08;39.82;96340.28;5115434;28;20051;-69
2022/07/25 06:08:12;;;;;;;8.00;7.20;;;;;;;29.12;40.47;96333.53;5115648;28;20074;-69
2022/07/25 06:10:40;;;;;;;9.25;6.55;;;;;;;29.32;40.52;96338.41;5115555;28;20474;-69
2022/07/25 06:13:10;;;;;;;7.32;6.57;;;;;;;29.48;39.72;96335.56;5115456;28;20048;-69
2022/07/25 06:15:37;;;;;;;8.27;6.93;;;;;;;29.45;39.63;96337.78;5115410;28;20123;-69
2022/07/25 06:18:05;;;;;;;9.55;7.13;;;;;;;29.44;38.89;96336.09;5115413;28;20044;-69
2022/07/25 06:20:32;;;;;;;10.13;7.07;;;;;;;29.60;39.54;96341.38;5115384;28;20554;-69
2022/07/25 06:23:02;;;;;;;10.43;6.95;;;;;;;29.49;39.05;96339.91;5115262;28;20044;-69
2022/07/25 06:25:29;;;;;;;11.57;7.40;;;;;;;29.41;38.88;96339.16;5115181;28;20051;-69
2022/07/25 06:27:57;;;;;;;11.63;7.40;;;;;;;29.13;39.21;96344.13;5115060;28;20477;-69
2022/07/25 06:30:26;;;;;;;9.10;7.10;;;;;;;29.01;39.47;96341.00;5115170;28;20078;-68
2022/07/25 06:32:53;;;;;;;8.90;7.68;;;;;;;28.97;40.28;96347.78;5115289;28;20455;-68
2022/07/25 06:35:21;;;;;;;9.40;7.18;;;;;;;28.84;40.44;96336.75;5115192;28;20067;-69
2022/07/25 06:37:49;;;;;;;7.50;6.80;;;;;;;28.69;39.42;96337.53;5114899;28;20039;-69
2022/07/25 06:40:17;;;;;;;10.00;7.65;;;;;;;28.76;40.23;96349.25;5114952;28;20087;-69
2022/07/25 06:42:48;;;;;;;8.75;7.85;;;;;;;28.61;40.07;96351.00;5114819;28;20074;-69
2022/07/25 06:45:16;;;;;;;12.90;7.90;;;;;;;28.63;39.90;96349.81;5114806;28;20051;-69
2022/07/25 06:47:45;;;;;;;10.98;7.68;;;;;;;28.67;40.42;96350.31;5114827;28;20390;-69
2022/07/25 06:50:14;;;;;;;9.07;7.95;;;;;;;28.66;40.45;96353.16;5114690;28;20134;-68
2022/07/25 06:52:42;;;;;;;8.57;7.07;;;;;;;28.46;40.34;96353.63;5114648;28;20057;-69
2022/07/25 06:55:14;;;;;;;8.25;7.60;;;;;;;28.46;40.81;96359.00;5114608;28;20131;-68
2022/07/25 06:57:42;;;;;;;9.00;8.10;;;;;;;28.41;40.59;96354.13;5114720;28;20489;-68
2022/07/25 07:00:13;;;;;;;9.73;8.30;;;;;;;28.44;40.88;96353.78;5114576;28;20040;-69
2022/07/25 07:02:54;;;;;;;8.82;7.15;;;;;;;28.39;40.73;96356.19;5114382;28;20087;-68
2022/07/25 07:05:22;;;;;;;9.48;7.60;;;;;;;28.39;41.41;96356.19;5114336;28;20048;-68
2022/07/25 07:07:50;;;;;;;10.82;8.27;;;;;;;28.07;41.98;96364.19;5114404;28;20084;-68
2022/07/25 07:10:18;;;;;;;8.32;7.53;;;;;;;27.67;43.17;96358.75;5114252;28;20043;-68
2022/07/25 07:12:45;;;;;;;8.85;7.78;;;;;;;27.43;44.03;96368.50;5114232;28;20090;-68
2022/07/25 07:15:14;;;;;;;12.23;7.43;;;;;;;27.15;44.93;96370.69;5114386;28;20051;-70
2022/07/25 07:17:41;;;;;;;8.43;7.50;;;;;;;26.99;45.40;96372.34;5114339;28;20043;-69
2022/07/25 07:20:12;;;;;;;9.88;8.02;;;;;;;26.79;45.83;96364.56;5114372;28;20051;-68
2022/07/25 07:22:46;;;;;;;9.43;8.45;;;;;;;26.71;46.77;96376.16;5114131;28;20048;-68
2022/07/25 07:25:14;;;;;;;11.15;7.63;;;;;;;26.70;47.21;96376.31;5114077;28;20455;-68
2022/07/25 07:27:41;;;;;;;9.60;8.45;;;;;;;26.79;46.59;96375.31;5113931;28;20050;-68
2022/07/25 07:30:10;;;;;;;10.70;8.65;;;;;;;26.83;47.09;96384.72;5114035;28;20151;-68
2022/07/25 07:32:37;;;;;;;10.52;8.45;;;;;;;26.84;46.15;96383.72;5113974;28;20040;-68
2022/07/25 07:35:05;;;;;;;10.25;8.15;;;;;;;26.97;47.22;96393.13;5113852;28;20096;-68
2022/07/25 07:37:34;;;;;;;8.95;8.15;;;;;;;26.98;46.19;96384.94;5113980;28;20051;-68
2022/07/25 07:40:01;;;;;;;9.32;8.23;;;;;;;27.52;45.25;96387.28;5113906;28;20082;-69
2022/07/25 07:42:36;;;;;;;10.55;8.98;;;;;;;27.93;43.28;96392.59;5113808;28;20054;-69
2022/07/25 07:45:10;;;;;;;9.48;8.20;;;;;;;28.20;44.63;96389.69;5113739;28;20047;-69
2022/07/25 07:47:37;;;;;;;10.95;8.25;;;;;;;28.61;42.46;96391.34;5113763;28;20043;-68
2022/07/25 07:50:05;;;;;;;10.07;8.65;;;;;;;29.01;42.19;96388.59;5113689;28;20569;-68
2022/07/25 07:52:35;;;;;;;9.55;8.35;;;;;;;29.09;41.11;96374.25;5113824;28;20481;-68
2022/07/25 07:57:47;;;;;;;9.70;8.18;;;;;;;29.27;40.65;96384.72;5113665;28;20416;-68
2022/07/25 08:00:16;;;;;;;12.05;8.38;;;;;;;29.48;40.84;96375.13;5113151;28;20044;-68
2022/07/25 08:02:44;;;;;;;13.68;8.43;;;;;;;29.73;40.54;96375.75;5113250;28;20052;-68
2022/07/25 08:05:12;;;;;;;9.98;7.53;;;;;;;29.79;39.86;96384.94;5113553;28;20087;-68
2022/07/25 08:07:40;;;;;;;10.55;8.60;;;;;;;29.87;40.42;96386.72;5113567;28;20126;-67
2022/07/25 08:10:09;;;;;;;9.68;8.18;;;;;;;30.22;39.58;96378.13;5113648;28;20530;-68
2022/07/25 08:12:40;;;;;;;10.57;8.23;;;;;;;30.04;39.89;96382.00;5113547;28;20048;-67
2022/07/25 08:15:09;;;;;;;10.63;9.52;;;;;;;30.42;39.36;96381.06;5113431;28;20044;-68
2022/07/25 08:17:36;;;;;;;9.10;8.23;;;;;;;30.73;38.24;96389.94;5113348;28;20093;-67
2022/07/25 08:20:08;;;;;;;13.95;8.52;;;;;;;30.72;38.55;96386.38;5113442;28;20048;-68
2022/07/25 08:22:37;;;;;;;13.90;8.77;;;;;;;30.80;37.91;96390.88;5113473;28;20048;-67
2022/07/25 08:25:07;;;;;;;9.88;8.57;;;;;;;31.06;37.50;96396.72;5113386;28;20048;-70
2022/07/25 08:27:35;;;;;;;9.57;8.63;;;;;;;30.77;38.43;96396.63;5113504;28;20044;-69
2022/07/25 08:30:02;;;;;;;15.75;8.77;;;;;;;30.64;38.25;96394.59;5113321;28;20044;-69
2022/07/25 08:32:30;;;;;;;12.20;9.32;;;;;;;30.69;38.20;96397.56;5113305;28;20493;-70
2022/07/25 08:34:58;;;;;;;10.52;9.48;;;;;;;30.58;37.95;96400.75;5113130;28;20052;-68
2022/07/25 08:37:25;;;;;;;14.93;9.25;;;;;;;30.38;39.28;96387.84;5113208;28;20126;-70
2022/07/25 08:39:53;;;;;;;9.52;8.52;;;;;;;30.35;38.50;96389.06;5113319;28;20051;-69
2022/07/25 08:42:23;;;;;;;13.07;8.60;;;;;;;30.66;38.36;96397.13;5113234;28;20500;-70
2022/07/25 08:44:58;;;;;;;10.85;8.80;;;;;;;30.33;39.17;96388.41;5113051;28;20079;-69
2022/07/25 08:47:27;;;;;;;12.27;9.13;;;;;;;30.49;39.36;96389.25;5113074;28;20047;-70
2022/07/25 08:49:56;;;;;;;11.15;8.38;;;;;;;30.21;38.33;96379.97;5113044;28;20043;-69
2022/07/25 08:52:24;;;;;;;9.75;8.73;;;;;;;29.96;39.51;96387.47;5113036;28;20047;-69
2022/07/25 08:54:52;;;;;;;10.95;8.98;;;;;;;29.46;40.20;96394.16;5113102;28;20083;-67
2022/07/25 08:57:22;;;;;;;9.48;8.07;;;;;;;29.39;40.54;96387.81;5113059;28;20454;-67
2022/07/25 08:59:49;;;;;;;;;;;;;;;29.80;39.30;96392.03;5113352;28;20054;-67
2022/07/25 09:02:17;;;;;;;10.20;9.20;;;;;;;29.84;40.39;96393.31;5112718;28;20404;-68
2022/07/25 09:04:44;;;;;;;13.63;8.48;;;;;;;29.74;39.86;96392.75;5112853;28;20048;-68
2022/07/25 09:07:11;;;;;;;9.85;8.50;;;;;;;29.93;40.04;96396.75;5112878;28;20083;-68
2022/07/25 09:09:39;;;;;;;11.75;7.80;;;;;;;30.21;39.85;96392.59;5112912;28;20048;-67
2022/07/25 09:12:08;;;;;;;9.90;8.60;;;;;;;30.64;39.06;96398.13;5114108;28;20054;-67
2022/07/25 09:14:44;;;;;;;9.60;8.80;;;;;;;30.42;37.44;96389.16;5116640;28;20043;-68
2022/07/25 09:17:11;;;;;;;9.05;8.30;;;;;;;30.01;38.65;96379.69;5116420;28;20047;-67
2022/07/25 09:19:39;;;;;;;10.38;7.82;;;;;;;30.37;38.56;96381.63;5116680;28;20497;-67
2022/07/25 09:22:08;;;;;;;9.05;8.10;;;;;;;30.45;38.27;96382.53;5116624;28;20104;-67
2022/07/25 09:24:36;;;;;;;10.65;9.15;;;;;;;30.25;38.36;96388.53;5116350;28;20453;-68
2022/07/25 09:27:13;;;;;;;8.68;7.88;;;;;;;30.20;38.98;96381.00;5116293;28;20048;-67
2022/07/25 09:29:43;;;;;;;11.60;8.88;;;;;;;30.13;39.05;96380.84;5116239;28;20044;-67
2022/07/25 09:32:19;;;;;;;16.33;8.93;;;;;;;30.34;38.19;96386.56;5116411;28;20101;-68
2022/07/25 09:34:48;;;;;;;9.82;8.82;;;;;;;30.62;38.33;96388.56;5116217;28;20051;-68
2022/07/25 09:37:16;;;;;;;9.07;8.20;;;;;;;30.78;38.34;96390.22;5116131;28;20043;-68
2022/07/25 09:39:46;;;;;;;11.45;8.13;;;;;;;30.43;37.42;96385.41;5116054;28;20485;-67
2022/07/25 09:42:18;;;;;;;10.15;9.15;;;;;;;30.19;36.79;96373.09;5116124;28;20048;-69
2022/07/25 09:44:58;;;;;;;13.98;8.80;;;;;;;30.10;38.09;96383.13;5116045;28;20048;-70
2022/07/25 09:47:26;;;;;;;13.02;8.68;;;;;;;29.99;37.64;96387.09;5115973;28;20479;-70
2022/07/25 09:49:54;;;;;;;12.05;9.43;;;;;;;30.01;37.18;96376.97;5115924;28;20085;-68
2022/07/25 09:52:22;;;;;;;11.48;9.70;;;;;;;30.25;37.36;96386.66;5115813;28;20108;-68
2022/07/25 09:54:49;;;;;;;10.82;9.27;;;;;;;30.18;37.09;96372.25;5115860;28;20540;-68
2022/07/25 09:57:17;;;;;;;10.50;9.38;;;;;;;30.20;38.10;96378.28;5115856;28;20051;-69
2022/07/25 09:59:46;;;;;;;10.52;9.57;;;;;;;30.38;37.21;96363.56;5116034;28;20447;-71
2022/07/25 10:02:26;;;;;;;10.60;9.40;;;;;;;30.40;36.89;96375.03;5115426;28;20048;-70
2022/07/25 10:05:13;;;;;;;10.65;9.38;;;;;;;30.13;38.07;96361.16;5115710;28;20047;-67
2022/07/25 10:07:45;;;;;;;10.95;9.85;;;;;;;30.04;37.07;96352.34;5115684;28;20044;-69
2022/07/25 10:10:24;;;;;;;10.80;9.80;;;;;;;30.32;36.05;96356.25;5115480;28;20059;-70
2022/07/25 10:13:02;;;;;;;11.35;10.18;;;;;;;30.26;34.93;96353.28;5115578;28;20127;-70
2022/07/25 10:15:42;;;;;;;12.25;9.80;;;;;;;30.24;33.78;96362.56;5115295;28;20044;-69
2022/07/25 10:18:12;;;;;;;9.95;9.05;;;;;;;30.17;34.92;96349.00;5115298;28;20051;-71
2022/07/25 10:20:40;;;;;;;9.82;8.65;;;;;;;30.11;34.56;96355.13;5115425;28;20397;-70
2022/07/25 10:23:27;;;;;;;9.35;8.43;;;;;;;30.29;34.84;96362.00;5114790;28;20056;-70
2022/07/25 10:26:09;;;;;;;12.85;8.82;;;;;;;30.21;36.02;96369.19;5115056;28;20047;-70
2022/07/25 10:28:45;;;;;;;11.07;8.35;;;;;;;30.17;35.13;96353.56;5115101;28;20126;-70
2022/07/25 10:31:26;;;;;;;10.10;9.02;;;;;;;30.51;34.94;96357.50;5115279;28;20104;-69
2022/07/25 10:33:56;;;;;;;8.80;7.80;;;;;;;30.61;34.48;96349.94;5115038;28;20083;-69
2022/07/25 10:36:25;;;;;;;8.30;7.38;;;;;;;30.64;35.68;96354.94;5115009;28;20059;-70
2022/07/25 10:38:56;;;;;;;8.63;7.93;;;;;;;30.87;34.25;96359.38;5114935;28;20473;-70
2022/07/25 10:41:28;;;;;;;9.43;8.30;;;;;;;30.75;34.86;96350.91;5115059;28;20075;-69
2022/07/25 10:44:01;;;;;;;9.07;8.10;;;;;;;30.52;34.99;96354.59;5114773;28;20443;-69
2022/07/25 10:46:31;;;;;;;9.30;8.07;;;;;;;30.43;35.58;96350.34;5114753;28;20447;-69
2022/07/25 10:49:03;;;;;;;11.02;8.52;;;;;;;30.74;35.56;96346.56;5114822;28;20061;-70
2022/07/25 10:51:33;;;;;;;11.65;8.48;;;;;;;31.01;34.95;96336.06;5114496;28;20408;-69
2022/07/25 10:54:01;;;;;;;9.73;7.63;;;;;;;31.13;34.89;96343.63;5114660;28;20106;-70
2022/07/25 10:56:29;;;;;;;8.57;7.85;;;;;;;31.16;34.62;96335.13;5114560;28;20565;-69
2022/07/25 10:58:59;;;;;;;10.07;7.95;;;;;;;31.11;34.61;96329.47;5114405;28;20136;-70
2022/07/25 11:01:28;;;;;;;8.98;8.07;;;;;;;31.15;34.64;96320.78;5114207;28;20051;-70
2022/07/25 11:03:59;;;;;;;8.95;7.95;;;;;;;31.25;34.99;96335.84;5114531;28;20043;-70
2022/07/25 11:06:32;;;;;;;8.00;7.20;;;;;;;30.99;35.25;96324.59;5113926;28;20131;-69
2022/07/25 11:09:00;;;;;;;8.32;7.30;;;;;;;30.84;35.70;96326.53;5114298;28;20122;-70
2022/07/25 11:11:36;;;;;;;9.13;7.35;;;;;;;30.63;34.88;96329.00;5114336;28;20051;-70
2022/07/25 11:14:05;;;;;;;9.30;6.88;;;;;;;30.60;36.55;96315.91;5114176;28;20054;-69
2022/07/25 11:16:32;;;;;;;9.45;6.97;;;;;;;30.77;35.92;96316.53;5114084;28;20044;-71
2022/07/25 11:19:01;;;;;;;10.57;7.15;;;;;;;30.80;36.03;96323.41;5114150;28;20051;-70
2022/07/25 11:21:29;;;;;;;8.25;7.13;;;;;;;30.79;34.99;96310.09;5114045;28;20048;-70
2022/07/25 11:23:56;;;;;;;8.55;7.28;;;;;;;30.70;35.94;96312.88;5114086;28;20087;-69
2022/07/25 11:26:23;;;;;;;7.40;6.28;;;;;;;30.81;35.67;96310.72;5113914;28;20043;-71
2022/07/25 11:28:51;;;;;;;7.43;6.70;;;;;;;30.86;35.50;96316.38;5114173;28;20050;-70
2022/07/25 11:31:22;;;;;;;7.97;5.88;;;;;;;30.71;35.27;96316.41;5114065;28;20131;-68
2022/07/25 11:33:50;;;;;;;11.52;6.95;;;;;;;30.46;36.49;96308.69;5114091;28;20130;-69
2022/07/25 11:36:18;;;;;;;6.85;5.78;;;;;;;30.59;35.87;96308.00;5113216;28;20090;-69